Time;durP1;ratioP1;P1;durP2;ratioP2;P2;SDS_P1;SDS_P2;PMS_P1;PMS_P2;Temp;Humidity;BMP_temperature;BMP_pressure;BME280_temperature;BME280_humidity;BME280_pressure;Samples;Min_cycle;Max_cycle;Signal;HPM_P1;HPM_P2
2021/04/11 04:16:27;;;;;;;3.17;0.60;;;0.70;92.60;;;;;;5040858;28;20140;-66
2021/04/11 04:19:05;;;;;;;2.03;0.68;;;1.20;91.30;;;;;;5042492;28;20396;-66
2021/04/11 04:22:18;;;;;;;0.88;0.60;;;1.50;87.60;;;;;;5051402;28;20025;-65
2021/04/11 04:25:03;;;;;;;0.73;0.57;;;2.00;84.70;;;;;;5073214;28;20474;-65
2021/04/11 04:27:40;;;;;;;1.85;0.60;;;2.40;81.60;;;;;;5046509;28;20107;-66
2021/04/11 04:30:08;;;;;;;1.92;0.60;;;2.80;78.80;;;;;;5037079;28;20063;-65
2021/04/11 04:32:37;;;;;;;2.45;0.80;;;2.90;77.80;;;;;;5051257;28;20119;-63
2021/04/11 04:35:11;;;;;;;1.90;0.65;;;3.20;76.60;;;;;;5035649;28;20029;-65
2021/04/11 04:37:50;;;;;;;1.20;0.63;;;3.60;75.20;;;;;;5039843;28;20492;-67
2021/04/11 04:40:36;;;;;;;1.13;0.70;;;3.80;73.20;;;;;;5042405;28;20488;-66
2021/04/11 04:43:10;;;;;;;1.77;0.60;;;4.20;77.50;;;;;;5045253;28;20037;-66
2021/04/11 04:45:46;;;;;;;1.40;0.50;;;4.80;73.10;;;;;;5053249;28;20542;-64
2021/04/11 04:48:24;;;;;;;1.52;0.70;;;5.00;70.20;;;;;;5050680;28;20076;-65
2021/04/11 04:50:56;;;;;;;1.45;0.50;;;5.00;69.30;;;;;;5037352;28;20083;-64
2021/04/11 04:53:29;;;;;;;1.95;0.60;;;5.10;68.20;;;;;;5049013;28;20051;-64
2021/04/11 04:55:57;;;;;;;1.83;0.68;;;5.40;68.00;;;;;;5046029;28;20028;-64
2021/04/11 04:58:29;;;;;;;1.77;0.60;;;5.50;67.50;;;;;;5046096;28;20033;-65
2021/04/11 05:01:02;;;;;;;2.15;0.50;;;5.70;66.80;;;;;;5048402;28;20087;-65
2021/04/11 05:03:40;;;;;;;2.15;0.60;;;6.00;66.40;;;;;;5049880;28;20091;-66
2021/04/11 05:06:27;;;;;;;1.98;0.60;;;6.30;65.40;;;;;;5052870;28;20033;-65
2021/04/11 05:09:17;;;;;;;1.40;0.57;;;6.50;64.80;;;;;;5047577;28;20021;-65
2021/04/11 05:11:51;;;;;;;1.75;0.60;;;6.60;63.10;;;;;;5049113;28;20036;-65
2021/04/11 05:14:28;;;;;;;1.48;0.60;;;6.70;63.00;;;;;;5053917;28;20025;-65
2021/04/11 05:17:04;;;;;;;2.00;0.50;;;6.90;63.20;;;;;;5054557;28;20028;-65
2021/04/11 05:19:39;;;;;;;1.52;0.52;;;7.10;62.60;;;;;;5041749;28;20025;-64
2021/04/11 05:22:22;;;;;;;0.73;0.57;;;7.10;61.50;;;;;;5045107;28;20021;-64
2021/04/11 05:24:53;;;;;;;3.00;0.73;;;7.30;61.40;;;;;;5051619;28;20491;-64
2021/04/11 05:27:34;;;;;;;3.28;0.70;;;7.80;62.30;;;;;;5051732;28;20031;-64
2021/04/11 05:30:35;;;;;;;3.58;0.75;;;8.00;60.00;;;;;;5038821;28;20420;-64
2021/04/11 05:33:01;;;;;;;4.38;0.50;;;8.10;59.80;;;;;;5054930;28;20376;-64
2021/04/11 05:35:30;;;;;;;3.40;0.50;;;8.20;59.40;;;;;;5035051;28;20376;-64
2021/04/11 05:37:56;;;;;;;3.28;0.70;;;8.20;59.30;;;;;;5038345;28;20413;-64
2021/04/11 05:40:33;;;;;;;1.40;0.47;;;8.00;59.00;;;;;;5048073;28;20027;-64
2021/04/11 05:43:12;;;;;;;2.40;0.60;;;7.90;59.30;;;;;;5054385;28;20086;-64
2021/04/11 05:46:00;;;;;;;1.85;0.60;;;7.70;59.20;;;;;;5047598;28;20029;-64
2021/04/11 05:48:37;;;;;;;3.28;0.70;;;7.60;59.50;;;;;;5039492;28;20082;-64
2021/04/11 05:51:12;;;;;;;1.02;0.43;;;7.50;60.10;;;;;;5032943;28;20056;-64
2021/04/11 05:53:47;;;;;;;1.27;0.60;;;7.30;59.80;;;;;;5039114;28;20535;-66
2021/04/11 05:56:26;;;;;;;2.78;0.50;;;7.10;60.50;;;;;;5043616;28;20029;-66
2021/04/11 05:59:12;;;;;;;0.93;0.50;;;7.20;60.80;;;;;;5053564;28;20055;-65
2021/04/11 06:01:42;;;;;;;1.35;0.50;;;7.20;60.90;;;;;;5052215;28;20090;-64
2021/04/11 06:04:10;;;;;;;1.45;0.50;;;7.70;66.70;;;;;;5047561;28;20028;-67
2021/04/11 06:07:00;;;;;;;4.32;0.57;;;8.30;61.20;;;;;;5033570;28;20030;-65
2021/04/11 06:09:51;;;;;;;2.10;0.55;;;9.30;74.20;;;;;;5051890;28;20033;-65
2021/04/11 06:12:51;;;;;;;1.20;0.60;;;10.80;72.00;;;;;;5040761;28;20028;-65
2021/04/11 06:15:47;;;;;;;3.65;0.40;;;11.40;62.80;;;;;;5053086;28;20048;-66
2021/04/11 06:18:13;;;;;;;1.90;0.60;;;10.30;57.60;;;;;;5050342;28;20086;-67
2021/04/11 06:20:40;;;;;;;1.23;0.40;;;9.30;57.40;;;;;;5053049;28;20028;-65
2021/04/11 06:23:24;;;;;;;1.98;0.68;;;8.50;57.80;;;;;;5052524;28;20043;-64
2021/04/11 06:26:14;;;;;;;2.70;0.80;;;7.90;59.10;;;;;;5069757;28;20040;-64
2021/04/11 06:28:48;;;;;;;2.40;1.03;;;7.30;60.10;;;;;;5064400;28;20033;-65
2021/04/11 06:31:24;;;;;;;3.13;0.65;;;7.10;61.30;;;;;;5049210;28;20427;-69
2021/04/11 06:33:57;;;;;;;2.90;0.70;;;6.90;61.30;;;;;;5048121;28;20518;-69
2021/04/11 06:36:33;;;;;;;4.35;0.75;;;6.80;61.80;;;;;;5041178;28;20029;-70
2021/04/11 06:39:30;;;;;;;1.88;0.55;;;6.70;62.40;;;;;;5032311;28;20018;-67
2021/04/11 06:42:18;;;;;;;2.28;0.73;;;6.60;64.90;;;;;;5055561;28;20047;-68
2021/04/11 06:44:55;;;;;;;1.33;0.70;;;6.80;66.20;;;;;;5046255;28;20021;-67
2021/04/11 06:47:40;;;;;;;3.10;0.77;;;6.80;64.80;;;;;;5037429;28;20017;-67
2021/04/11 06:50:30;;;;;;;5.80;0.90;;;6.70;64.00;;;;;;5056443;28;20028;-66
2021/04/11 06:53:20;;;;;;;1.83;0.80;;;6.60;63.40;;;;;;5048658;28;20116;-66
2021/04/11 06:55:58;;;;;;;9.18;0.70;;;6.50;64.30;;;;;;5051920;28;20400;-67
2021/04/11 06:58:49;;;;;;;4.40;0.85;;;6.60;65.50;;;;;;5060946;28;20400;-66
2021/04/11 07:01:51;;;;;;;4.75;0.80;;;6.60;63.90;;;;;;5058688;28;20058;-66
2021/04/11 07:04:27;;;;;;;5.40;0.90;;;6.50;64.90;;;;;;5048895;28;20057;-66
2021/04/11 07:06:55;;;;;;;4.65;0.60;;;6.40;64.00;;;;;;5054042;28;20032;-66
2021/04/11 07:09:48;;;;;;;3.35;0.65;;;6.20;65.00;;;;;;5053252;28;20056;-67
2021/04/11 07:12:52;;;;;;;4.50;0.90;;;6.20;64.80;;;;;;5051395;28;20041;-66
2021/04/11 07:15:24;;;;;;;3.42;0.80;;;6.10;64.00;;;;;;5062392;28;20408;-66
2021/04/11 07:18:08;;;;;;;3.30;0.80;;;6.10;64.70;;;;;;5054977;28;20379;-66
2021/04/11 07:21:11;;;;;;;3.38;0.60;;;6.00;65.30;;;;;;5062266;28;20500;-67
2021/04/11 07:23:49;;;;;;;4.50;0.80;;;5.80;65.40;;;;;;5051443;28;20029;-70
2021/04/11 07:26:27;;;;;;;5.15;0.82;;;5.80;66.30;;;;;;5052180;28;20037;-70
2021/04/11 07:29:18;;;;;;;1.63;0.73;;;5.70;64.70;;;;;;5052413;28;20013;-70
2021/04/11 07:31:52;;;;;;;13.93;1.35;;;5.60;64.60;;;;;;5052554;28;20380;-68
2021/04/11 07:34:37;;;;;;;7.60;1.02;;;5.50;64.70;;;;;;5052235;28;20548;-68
2021/04/11 07:37:44;;;;;;;1.85;0.80;;;5.50;64.90;;;;;;5052349;28;20020;-68
2021/04/11 07:40:10;;;;;;;11.48;4.72;;;5.50;65.10;;;;;;5051858;28;20028;-68
2021/04/11 07:42:51;;;;;;;4.40;1.00;;;5.60;65.40;;;;;;5051994;28;20086;-68
2021/04/11 07:45:23;;;;;;;3.33;0.93;;;5.50;65.10;;;;;;5052004;28;20025;-68
2021/04/11 07:48:16;;;;;;;3.17;1.00;;;5.50;65.20;;;;;;5051955;28;20025;-68
2021/04/11 07:50:50;;;;;;;5.28;0.80;;;5.60;65.50;;;;;;5051953;28;20033;-68
2021/04/11 07:53:32;;;;;;;5.50;0.70;;;5.60;65.40;;;;;;5051673;28;20099;-68
2021/04/11 07:56:23;;;;;;;2.72;0.60;;;5.60;65.50;;;;;;5052085;28;20017;-68
2021/04/11 07:59:20;;;;;;;1.95;0.50;;;5.50;65.30;;;;;;5052177;28;20024;-68
2021/04/11 08:02:16;;;;;;;3.17;0.80;;;5.60;65.90;;;;;;5051581;28;20599;-68
2021/04/11 08:05:00;;;;;;;3.03;0.80;;;5.60;66.00;;;;;;5052191;28;20036;-68
2021/04/11 08:08:03;;;;;;;3.40;0.65;;;5.70;65.70;;;;;;5051976;28;20366;-69
2021/04/11 08:10:47;;;;;;;3.38;0.85;;;5.70;65.50;;;;;;5051916;28;20021;-69
2021/04/11 08:13:47;;;;;;;2.67;0.77;;;5.80;65.60;;;;;;5051836;28;20107;-68
2021/04/11 08:16:40;;;;;;;2.65;0.90;;;5.70;65.40;;;;;;5051653;28;20125;-69
2021/04/11 08:19:33;;;;;;;2.75;0.90;;;5.80;65.60;;;;;;5051643;28;20551;-69
2021/04/11 08:22:06;;;;;;;1.88;0.50;;;5.80;65.30;;;;;;5051783;28;20392;-69
2021/04/11 08:24:55;;;;;;;5.60;1.02;;;5.80;64.70;;;;;;5051499;28;20033;-68
2021/04/11 08:27:30;;;;;;;4.25;0.88;;;5.80;64.70;;;;;;5051936;28;20108;-68
2021/04/11 08:30:29;;;;;;;1.63;0.73;;;6.60;70.50;;;;;;5051691;28;20025;-69
2021/04/11 08:33:14;;;;;;;3.60;1.10;;;6.50;63.70;;;;;;5051742;28;20102;-69
2021/04/11 08:36:09;;;;;;;3.00;0.60;;;6.30;63.40;;;;;;5049044;28;20031;-69
2021/04/11 08:38:43;;;;;;;3.28;0.95;;;6.20;64.10;;;;;;5050019;28;20025;-70
2021/04/11 08:41:28;;;;;;;4.10;1.15;;;6.20;64.00;;;;;;5051457;28;20021;-70
2021/04/11 08:44:15;;;;;;;4.30;0.90;;;6.20;64.10;;;;;;5051406;28;20096;-70
2021/04/11 08:47:10;;;;;;;2.92;0.80;;;6.30;63.90;;;;;;5050706;28;20039;-70
2021/04/11 08:49:46;;;;;;;7.40;0.68;;;6.40;62.90;;;;;;5049280;28;20029;-70
2021/04/11 08:52:53;;;;;;;1.33;0.70;;;6.40;62.70;;;;;;5048457;28;20048;-68
2021/04/11 08:55:46;;;;;;;6.32;1.05;;;6.40;62.30;;;;;;5047786;28;20027;-68
2021/04/11 08:58:32;;;;;;;7.05;0.95;;;6.50;62.70;;;;;;5050787;28;20103;-69
2021/04/11 09:01:08;;;;;;;3.50;0.95;;;6.50;62.70;;;;;;5048547;28;20017;-69
2021/04/11 09:04:05;;;;;;;2.35;0.80;;;6.50;61.80;;;;;;5051187;28;20013;-69
2021/04/11 09:06:49;;;;;;;5.70;0.90;;;6.50;61.30;;;;;;5052916;28;20486;-69
2021/04/11 09:09:53;;;;;;;3.08;0.70;;;6.60;61.30;;;;;;5049806;28;20056;-70
2021/04/11 09:12:42;;;;;;;8.50;0.90;;;6.70;61.60;;;;;;5050971;28;20037;-69
2021/04/11 09:15:22;;;;;;;9.48;0.90;;;6.70;61.30;;;;;;5050852;28;20045;-70
2021/04/11 09:18:00;;;;;;;3.80;0.73;;;6.70;61.00;;;;;;5051076;28;20037;-69
2021/04/11 09:20:32;;;;;;;3.80;0.90;;;6.80;61.10;;;;;;5051209;28;20029;-70
2021/04/11 09:23:36;;;;;;;1.65;0.60;;;6.80;60.80;;;;;;5051155;28;20040;-70
2021/04/11 09:26:39;;;;;;;4.10;0.85;;;6.80;60.60;;;;;;5051737;28;20119;-70
2021/04/11 09:29:33;;;;;;;5.50;0.73;;;6.90;60.00;;;;;;5054632;28;20033;-70
2021/04/11 09:32:06;;;;;;;4.55;0.88;;;6.90;60.00;;;;;;5054717;28;20045;-69
2021/04/11 09:34:41;;;;;;;3.03;0.80;;;6.90;60.00;;;;;;5054184;28;20017;-69
2021/04/11 09:37:07;;;;;;;4.78;0.77;;;6.90;59.60;;;;;;5054138;28;20116;-69
2021/04/11 09:39:44;;;;;;;2.38;0.88;;;7.00;60.00;;;;;;5053926;28;20101;-69
2021/04/11 09:42:34;;;;;;;3.17;0.55;;;7.00;59.40;;;;;;5051890;28;20015;-69
2021/04/11 09:45:19;;;;;;;7.82;1.20;;;7.10;59.60;;;;;;5051781;28;20032;-69
2021/04/11 09:48:17;;;;;;;2.20;0.50;;;7.20;59.60;;;;;;5055603;28;20025;-69
2021/04/11 09:51:06;;;;;;;7.95;0.70;;;7.30;59.00;;;;;;5052490;28;20086;-69
2021/04/11 09:54:07;;;;;;;7.90;0.73;;;7.30;58.60;;;;;;5052341;28;20113;-69
2021/04/11 09:56:40;;;;;;;;;;;7.30;58.10;;;;;;5056728;28;20057;-69
2021/04/11 09:59:16;;;;;;;2.17;0.98;;;7.30;57.90;;;;;;5052116;28;19913;-69
2021/04/11 10:01:53;;;;;;;3.95;0.80;;;7.40;59.00;;;;;;5054041;28;20572;-70
2021/04/11 10:04:30;;;;;;;3.28;0.65;;;7.40;58.50;;;;;;5054211;28;20060;-69
2021/04/11 10:07:07;;;;;;;9.18;1.00;;;7.50;57.90;;;;;;5054029;28;20052;-69
2021/04/11 10:10:20;;;;;;;1.90;0.50;;;7.50;57.80;;;;;;5053915;28;20035;-68
2021/04/11 10:13:07;;;;;;;3.10;0.60;;;7.50;57.60;;;;;;5051129;28;20029;-69
2021/04/11 10:15:47;;;;;;;3.47;0.75;;;7.50;57.70;;;;;;5052821;28;20072;-72
2021/04/11 10:18:27;;;;;;;1.80;0.57;;;7.50;57.30;;;;;;5051711;28;20481;-68
2021/04/11 10:21:18;;;;;;;2.75;1.10;;;7.50;57.50;;;;;;5053720;28;20036;-67
2021/04/11 10:23:56;;;;;;;3.42;1.13;;;7.50;57.60;;;;;;5053528;28;20039;-68
2021/04/11 10:26:30;;;;;;;3.35;0.75;;;7.50;57.10;;;;;;5053529;28;20032;-67
2021/04/11 10:29:04;;;;;;;3.55;0.70;;;7.60;57.70;;;;;;5053633;28;20059;-68
2021/04/11 10:31:40;;;;;;;4.85;0.93;;;7.70;58.10;;;;;;5053292;28;20037;-68
2021/04/11 10:34:28;;;;;;;5.53;0.68;;;7.70;57.20;;;;;;5053494;28;20484;-68
2021/04/11 10:37:04;;;;;;;1.73;0.68;;;7.70;56.90;;;;;;5052880;28;20492;-69
2021/04/11 10:39:51;;;;;;;3.03;0.75;;;7.70;56.90;;;;;;5053306;28;20116;-69
2021/04/11 10:42:30;;;;;;;3.97;0.63;;;7.70;56.60;;;;;;5053475;28;20039;-69
2021/04/11 10:45:19;;;;;;;3.22;0.68;;;7.80;56.70;;;;;;5053227;28;20575;-69
2021/04/11 10:48:17;;;;;;;3.60;0.55;;;7.80;57.00;;;;;;5053469;28;20021;-69
2021/04/11 10:51:02;;;;;;;3.85;0.57;;;7.80;57.30;;;;;;5052857;28;20362;-69
2021/04/11 10:53:47;;;;;;;3.28;1.00;;;7.90;56.70;;;;;;5053283;28;20036;-68
2021/04/11 10:56:16;;;;;;;3.55;0.65;;;7.90;56.70;;;;;;5051866;28;20025;-68
2021/04/11 10:59:21;;;;;;;7.25;0.73;;;7.90;56.50;;;;;;5052825;28;20046;-68
2021/04/11 11:02:10;;;;;;;2.60;0.63;;;7.90;56.70;;;;;;5050620;28;20407;-68
2021/04/11 11:04:54;;;;;;;1.35;0.50;;;7.90;56.30;;;;;;5052872;28;20036;-69
2021/04/11 11:07:22;;;;;;;2.53;0.70;;;7.90;56.60;;;;;;5052980;28;20025;-68
2021/04/11 11:09:57;;;;;;;3.90;0.70;;;7.90;56.60;;;;;;5052883;28;20021;-69
2021/04/11 11:12:32;;;;;;;3.70;0.80;;;7.90;56.80;;;;;;5052412;28;20044;-68
2021/04/11 11:15:27;;;;;;;2.13;0.70;;;7.90;57.10;;;;;;5052555;28;20057;-69
2021/04/11 11:18:17;;;;;;;2.95;0.80;;;7.90;56.70;;;;;;5041004;28;20041;-69
2021/04/11 11:20:55;;;;;;;3.60;0.80;;;7.90;56.70;;;;;;5056164;28;20369;-68
2021/04/11 11:23:41;;;;;;;7.15;0.85;;;7.90;56.90;;;;;;5050766;28;20473;-68
2021/04/11 11:26:28;;;;;;;5.00;0.80;;;8.10;60.30;;;;;;5051701;28;20514;-70
2021/04/11 11:28:57;;;;;;;1.98;0.63;;;8.30;56.50;;;;;;5052217;28;20025;-70
2021/04/11 11:32:08;;;;;;;4.70;1.00;;;8.20;56.30;;;;;;5051596;28;20108;-69
2021/04/11 11:34:56;;;;;;;4.47;0.82;;;8.20;56.00;;;;;;5051982;28;20039;-69
2021/04/11 11:37:46;;;;;;;3.30;0.80;;;8.10;55.90;;;;;;5052043;28;20480;-70
2021/04/11 11:40:15;;;;;;;2.63;0.85;;;8.20;56.50;;;;;;5051780;28;20025;-70
2021/04/11 11:43:01;;;;;;;10.52;1.23;;;8.20;56.00;;;;;;5051101;28;20031;-67
2021/04/11 11:46:04;;;;;;;5.18;0.85;;;8.10;55.70;;;;;;5051855;28;20032;-67
2021/04/11 11:48:48;;;;;;;3.85;0.70;;;8.10;55.70;;;;;;5051802;28;20388;-67
2021/04/11 11:51:32;;;;;;;2.45;0.43;;;8.10;55.40;;;;;;5051806;28;20431;-67
2021/04/11 11:54:41;;;;;;;4.50;0.93;;;8.10;55.30;;;;;;5051884;28;20017;-67
2021/04/11 11:57:37;;;;;;;1.60;0.70;;;8.10;55.20;;;;;;5031846;28;20571;-64
2021/04/11 12:00:30;;;;;;;2.72;0.50;;;8.10;58.60;;;;;;5032237;28;20033;-67
2021/04/11 12:03:19;;;;;;;21.63;1.75;;;8.40;55.60;;;;;;5039181;28;20108;-68
2021/04/11 12:05:50;;;;;;;9.48;1.02;;;8.30;54.90;;;;;;5051467;28;20021;-68
2021/04/11 12:08:39;;;;;;;6.63;0.77;;;8.30;55.10;;;;;;5052061;28;20372;-67
2021/04/11 12:11:38;;;;;;;3.50;0.75;;;8.30;54.90;;;;;;5051796;28;20085;-67
2021/04/11 12:14:26;;;;;;;4.65;0.70;;;8.30;55.20;;;;;;5051501;28;20037;-67
2021/04/11 12:16:58;;;;;;;7.22;0.70;;;8.30;54.90;;;;;;5051497;28;20504;-67
2021/04/11 12:19:41;;;;;;;3.83;0.70;;;8.30;54.60;;;;;;5051539;28;20619;-67
2021/04/11 12:22:16;;;;;;;5.88;0.50;;;8.30;55.00;;;;;;5051594;28;20075;-67
2021/04/11 12:25:05;;;;;;;3.42;0.50;;;8.30;54.60;;;;;;5051631;28;20033;-67
2021/04/11 12:27:38;;;;;;;7.30;1.15;;;8.30;54.40;;;;;;5050517;28;20044;-67
2021/04/11 12:30:08;;;;;;;1.13;0.50;;;8.30;54.10;;;;;;5031821;28;20116;-68
2021/04/11 12:32:49;;;;;;;1.95;0.70;;;8.30;54.30;;;;;;5046779;28;20120;-68
2021/04/11 12:35:21;;;;;;;1.23;0.45;;;8.30;55.20;;;;;;5051448;28;20025;-68
2021/04/11 12:38:06;;;;;;;1.48;0.50;;;8.30;54.40;;;;;;5051179;28;20373;-67
2021/04/11 12:40:35;;;;;;;2.63;0.60;;;8.40;54.00;;;;;;5051298;28;20096;-68
2021/04/11 12:43:10;;;;;;;2.40;0.43;;;8.40;53.90;;;;;;5051658;28;20035;-68
2021/04/11 12:46:00;;;;;;;1.95;0.60;;;8.40;53.60;;;;;;5049966;28;20471;-68
2021/04/11 12:48:43;;;;;;;2.63;0.70;;;8.40;53.90;;;;;;5051303;28;20033;-68
2021/04/11 12:51:18;;;;;;;3.47;0.60;;;8.40;54.20;;;;;;5051391;28;20492;-67
2021/04/11 12:54:06;;;;;;;3.38;0.50;;;8.50;54.10;;;;;;5051443;28;20021;-65
2021/04/11 12:56:35;;;;;;;3.63;0.70;;;8.50;53.80;;;;;;5051391;28;20476;-68
2021/04/11 12:59:17;;;;;;;6.53;0.60;;;8.50;53.80;;;;;;5051254;28;20029;-69
2021/04/11 13:01:47;;;;;;;1.70;0.50;;;8.50;53.60;;;;;;5053262;28;20120;-69
2021/04/11 13:04:34;;;;;;;0.75;0.45;;;8.50;53.40;;;;;;5055614;28;20099;-68
2021/04/11 13:07:29;;;;;;;0.52;0.40;;;8.50;53.60;;;;;;5055178;28;20046;-69
2021/04/11 13:10:19;;;;;;;3.33;0.60;;;8.60;53.20;;;;;;5055042;28;20108;-70
2021/04/11 13:13:08;;;;;;;1.58;0.50;;;8.50;52.90;;;;;;5054851;28;20037;-70
2021/04/11 13:15:49;;;;;;;1.45;0.50;;;8.50;53.00;;;;;;5053890;28;20464;-70
2021/04/11 13:18:18;;;;;;;2.97;0.70;;;8.50;53.00;;;;;;5054905;28;20075;-70
2021/04/11 13:20:56;;;;;;;1.95;0.60;;;8.50;52.90;;;;;;5054931;28;20032;-69
2021/04/11 13:23:28;;;;;;;1.27;0.70;;;8.50;53.00;;;;;;5054798;28;20025;-69
2021/04/11 13:26:25;;;;;;;2.60;0.65;;;8.50;52.90;;;;;;5055159;28;20026;-69
2021/04/11 13:29:08;;;;;;;3.83;0.63;;;8.40;53.00;;;;;;5054432;28;20036;-69
2021/04/11 13:31:58;;;;;;;0.73;0.50;;;8.40;53.00;;;;;;5054601;28;20032;-69
2021/04/11 13:34:36;;;;;;;;;;;8.50;53.00;;;;;;5055367;28;20024;-69
2021/04/11 13:37:11;;;;;;;2.45;0.50;;;8.50;52.80;;;;;;5054558;28;20390;-69
2021/04/11 13:39:39;;;;;;;2.35;0.52;;;8.50;53.60;;;;;;5054318;28;20029;-69
2021/04/11 13:42:23;;;;;;;0.63;0.50;;;8.50;52.90;;;;;;5054330;28;20397;-69
2021/04/11 13:45:10;;;;;;;1.50;0.63;;;8.50;52.90;;;;;;5054585;28;20108;-69
2021/04/11 13:48:06;;;;;;;1.58;0.50;;;8.50;52.90;;;;;;5054440;28;20096;-69
2021/04/11 13:50:44;;;;;;;2.63;0.70;;;8.50;53.10;;;;;;5054637;28;20021;-70
2021/04/11 13:53:41;;;;;;;1.35;0.82;;;8.50;53.10;;;;;;5054431;28;20032;-70
2021/04/11 13:56:27;;;;;;;1.70;0.47;;;8.40;52.80;;;;;;5054272;28;20021;-70
2021/04/11 13:58:58;;;;;;;4.95;0.50;;;8.40;53.00;;;;;;5054659;28;20102;-70
2021/04/11 14:01:46;;;;;;;3.17;0.65;;;8.50;53.30;;;;;;5054184;28;20108;-69
2021/04/11 14:04:40;;;;;;;1.95;0.50;;;8.50;53.40;;;;;;5054249;28;20032;-69
2021/04/11 14:07:29;;;;;;;1.65;0.40;;;8.50;53.20;;;;;;5053084;28;20087;-69
2021/04/11 14:10:19;;;;;;;4.03;0.57;;;8.50;53.10;;;;;;5054046;28;20451;-69
2021/04/11 14:13:04;;;;;;;1.63;0.93;;;8.50;52.50;;;;;;5053094;28;20033;-69
2021/04/11 14:16:07;;;;;;;0.88;0.50;;;8.50;52.40;;;;;;5053722;28;20041;-69
2021/04/11 14:18:57;;;;;;;2.97;0.60;;;8.50;52.70;;;;;;5051406;28;20025;-69
2021/04/11 14:21:26;;;;;;;;;;;8.50;53.20;;;;;;5054244;28;20037;-70
2021/04/11 14:24:13;;;;;;;0.75;0.43;;;8.60;52.90;;;;;;5053745;28;20475;-69
2021/04/11 14:26:57;;;;;;;4.30;0.60;;;8.60;53.40;;;;;;5053525;28;20033;-69
2021/04/11 14:29:37;;;;;;;4.45;0.60;;;8.60;53.60;;;;;;5053791;28;20026;-68
2021/04/11 14:32:10;;;;;;;3.80;0.70;;;8.60;53.30;;;;;;5053616;28;20037;-68
2021/04/11 14:34:51;;;;;;;4.95;0.52;;;8.60;53.20;;;;;;5053438;28;20033;-70
2021/04/11 14:37:46;;;;;;;3.17;0.70;;;8.60;53.10;;;;;;5053351;28;20033;-69
2021/04/11 14:40:25;;;;;;;3.42;0.80;;;8.60;53.40;;;;;;5053268;28;20583;-69
2021/04/11 14:43:04;;;;;;;3.10;0.50;;;8.60;53.30;;;;;;5053290;28;20472;-69
2021/04/11 14:45:41;;;;;;;2.95;0.60;;;8.60;53.30;;;;;;5053223;28;20060;-70
2021/04/11 14:48:11;;;;;;;2.72;0.60;;;8.60;53.40;;;;;;5053405;28;20059;-69
2021/04/11 14:50:43;;;;;;;5.78;0.77;;;8.60;52.90;;;;;;5053111;28;20063;-69
2021/04/11 14:53:27;;;;;;;2.70;0.55;;;8.60;52.80;;;;;;5053192;28;20041;-69
2021/04/11 14:55:58;;;;;;;3.30;0.85;;;8.60;52.90;;;;;;5053060;28;20032;-69
2021/04/11 14:58:47;;;;;;;3.10;0.50;;;8.50;53.00;;;;;;5053047;28;20108;-69
2021/04/11 15:01:49;;;;;;;1.38;0.63;;;8.60;52.80;;;;;;5053122;28;20039;-70
2021/04/11 15:04:17;;;;;;;1.02;0.40;;;8.60;52.50;;;;;;5053138;28;20021;-70
2021/04/11 15:06:46;;;;;;;2.60;0.50;;;8.60;52.40;;;;;;5052719;28;20470;-70
2021/04/11 15:09:45;;;;;;;5.07;0.95;;;8.50;52.30;;;;;;5052971;28;20154;-70
2021/04/11 15:12:32;;;;;;;5.63;0.80;;;8.50;52.50;;;;;;5052738;28;20066;-69
2021/04/11 15:15:02;;;;;;;1.50;0.60;;;8.50;52.50;;;;;;5052808;28;20045;-70
2021/04/11 15:17:43;;;;;;;1.40;0.60;;;8.50;52.70;;;;;;5052876;28;20468;-70
2021/04/11 15:20:19;;;;;;;1.05;0.40;;;8.50;52.60;;;;;;5053099;28;20021;-71
2021/04/11 15:22:55;;;;;;;1.25;0.55;;;8.50;52.60;;;;;;5052593;28;20090;-70
2021/04/11 15:25:25;;;;;;;1.88;0.50;;;8.50;52.90;;;;;;5052663;28;20357;-70
2021/04/11 15:28:12;;;;;;;2.67;0.60;;;8.50;53.00;;;;;;5052786;28;20112;-70
2021/04/11 15:30:44;;;;;;;1.63;0.50;;;8.40;52.80;;;;;;5052373;28;20032;-70
2021/04/11 15:33:23;;;;;;;1.15;0.57;;;8.40;52.90;;;;;;5052555;28;20095;-69
2021/04/11 15:36:00;;;;;;;2.63;0.98;;;8.40;52.90;;;;;;5052306;28;20024;-68
2021/04/11 15:38:50;;;;;;;0.73;0.40;;;8.40;52.80;;;;;;5052496;28;20040;-69
2021/04/11 15:41:35;;;;;;;0.88;0.40;;;8.40;52.80;;;;;;5052293;28;20072;-69
2021/04/11 15:44:15;;;;;;;2.63;0.57;;;8.40;52.70;;;;;;5052907;28;20424;-69
2021/04/11 15:46:53;;;;;;;2.67;0.60;;;8.40;52.80;;;;;;5052074;28;20100;-68
2021/04/11 15:49:40;;;;;;;3.47;0.57;;;8.40;52.90;;;;;;5052545;28;20090;-68
2021/04/11 15:52:12;;;;;;;8.73;0.90;;;8.40;52.70;;;;;;5052081;28;20032;-68
2021/04/11 15:54:49;;;;;;;2.15;0.57;;;8.40;53.10;;;;;;5050824;28;20045;-68
2021/04/11 15:57:23;;;;;;;1.83;0.60;;;8.40;52.80;;;;;;5052370;28;20029;-68
2021/04/11 16:00:06;;;;;;;0.93;0.50;;;8.40;52.50;;;;;;5052260;28;20025;-68
2021/04/11 16:02:32;;;;;;;3.35;0.55;;;8.30;52.40;;;;;;5052048;28;20025;-68
2021/04/11 16:05:09;;;;;;;4.47;0.52;;;8.30;52.50;;;;;;5051947;28;20487;-68
2021/04/11 16:07:48;;;;;;;1.08;0.45;;;8.30;52.60;;;;;;5051860;28;20025;-68
2021/04/11 16:10:21;;;;;;;4.18;0.60;;;8.20;52.60;;;;;;5051909;28;20029;-67
2021/04/11 16:12:50;;;;;;;1.10;0.47;;;8.20;52.60;;;;;;5052037;28;20094;-68
2021/04/11 16:15:25;;;;;;;1.30;0.50;;;8.30;53.50;;;;;;5051810;28;20048;-67
2021/04/11 16:18:05;;;;;;;2.28;0.80;;;8.50;57.10;;;;;;5051939;28;20037;-67
2021/04/11 16:20:54;;;;;;;3.90;0.73;;;8.50;53.20;;;;;;5052089;28;20470;-67
2021/04/11 16:23:25;;;;;;;7.05;0.77;;;8.40;52.50;;;;;;5051832;28;20438;-67
2021/04/11 16:26:01;;;;;;;2.25;0.70;;;8.40;52.70;;;;;;5051915;28;20460;-68
2021/04/11 16:28:49;;;;;;;1.35;0.50;;;8.30;52.70;;;;;;5051858;28;20064;-68
2021/04/11 16:31:21;;;;;;;6.85;0.98;;;8.30;52.70;;;;;;5051547;28;20051;-68
2021/04/11 16:34:00;;;;;;;5.50;1.00;;;8.30;52.60;;;;;;5051601;28;20044;-67
2021/04/11 16:36:34;;;;;;;1.65;0.70;;;8.20;52.60;;;;;;5055090;28;20095;-67
2021/04/11 16:39:21;;;;;;;2.95;0.68;;;8.20;52.70;;;;;;5039244;28;20029;-67
2021/04/11 16:42:04;;;;;;;3.50;0.70;;;8.10;52.50;;;;;;5035701;28;20410;-67
2021/04/11 16:45:30;;;;;;;4.95;0.55;;;8.10;52.70;;;;;;5036150;28;20370;-67
2021/04/11 16:48:33;;;;;;;0.85;0.50;;;8.00;52.70;;;;;;5033332;28;20120;-67
2021/04/11 16:51:38;;;;;;;7.90;0.68;;;8.00;52.70;;;;;;5033167;28;20048;-68
2021/04/11 16:54:18;;;;;;;1.17;0.60;;;8.00;52.60;;;;;;5045528;28;20021;-67
2021/04/11 16:56:51;;;;;;;2.13;0.50;;;8.00;52.70;;;;;;5055268;28;20484;-75
2021/04/11 16:59:18;;;;;;;3.42;0.60;;;8.00;52.70;;;;;;5055532;28;20032;-68
2021/04/11 17:02:00;;;;;;;2.65;0.40;;;7.90;52.70;;;;;;5055218;28;20032;-68
2021/04/11 17:04:41;;;;;;;3.80;0.55;;;7.90;53.10;;;;;;5055629;28;20025;-68
2021/04/11 17:07:06;;;;;;;2.75;0.50;;;7.90;52.80;;;;;;5054866;28;20460;-68
2021/04/11 17:09:45;;;;;;;1.75;0.50;;;7.90;53.20;;;;;;5055220;28;20045;-68
2021/04/11 17:12:18;;;;;;;4.97;1.40;;;7.80;53.40;;;;;;5055286;28;20091;-68
2021/04/11 17:14:56;;;;;;;10.45;1.60;;;8.50;65.60;;;;;;5054876;28;20044;-68
2021/04/11 17:17:26;;;;;;;3.65;1.02;;;8.80;57.40;;;;;;5055264;28;20025;-68
2021/04/11 17:19:52;;;;;;;;;;;8.70;54.90;;;;;;5055726;28;20033;-68
2021/04/11 17:22:45;;;;;;;4.07;1.10;;;8.50;53.20;;;;;;5055119;28;20574;-68
2021/04/11 17:25:21;;;;;;;3.63;0.70;;;8.30;53.30;;;;;;5054973;28;20465;-68
2021/04/11 17:27:56;;;;;;;4.30;0.90;;;8.20;53.40;;;;;;5054562;28;20037;-68
2021/04/11 17:30:35;;;;;;;10.77;0.93;;;8.00;53.30;;;;;;5054788;28;20108;-68
2021/04/11 17:33:40;;;;;;;6.70;1.30;;;7.90;53.60;;;;;;5054719;28;20508;-68
2021/04/11 17:36:09;;;;;;;8.35;1.15;;;7.80;53.70;;;;;;5054979;28;20021;-68
2021/04/11 17:38:40;;;;;;;1.77;0.65;;;7.80;54.20;;;;;;5054554;28;20029;-68
2021/04/11 17:41:25;;;;;;;8.23;0.98;;;7.70;54.00;;;;;;5054614;28;20473;-67
2021/04/11 17:44:02;;;;;;;8.55;0.75;;;8.10;61.20;;;;;;5054455;28;20021;-67
2021/04/11 17:47:02;;;;;;;5.88;0.80;;;8.10;55.10;;;;;;5053692;28;20021;-68
2021/04/11 17:49:51;;;;;;;8.68;0.90;;;8.00;54.20;;;;;;5062697;28;20041;-68
2021/04/11 17:52:28;;;;;;;9.18;1.27;;;7.80;54.30;;;;;;5062801;28;20489;-68
2021/04/11 17:55:04;;;;;;;4.18;0.90;;;7.80;54.60;;;;;;5054223;28;20033;-68
2021/04/11 17:57:30;;;;;;;11.25;1.33;;;7.70;54.70;;;;;;5054274;28;20025;-68
2021/04/11 18:00:14;;;;;;;4.45;0.80;;;7.70;55.10;;;;;;5053979;28;20372;-68
2021/04/11 18:03:00;;;;;;;15.13;2.50;;;7.80;60.40;;;;;;5054039;28;20029;-68
2021/04/11 18:05:29;;;;;;;11.00;1.50;;;8.30;64.40;;;;;;5062942;28;20029;-68
2021/04/11 18:08:18;;;;;;;10.82;1.52;;;8.30;59.00;;;;;;5053846;28;20527;-68
2021/04/11 18:10:49;;;;;;;21.38;1.63;;;8.10;56.70;;;;;;5054086;28;20017;-68
2021/04/11 18:13:25;;;;;;;7.07;0.98;;;8.00;56.30;;;;;;5054057;28;20029;-68
2021/04/11 18:16:21;;;;;;;50.88;3.28;;;7.80;56.20;;;;;;5053674;28;20037;-68
2021/04/11 18:19:05;;;;;;;24.13;1.45;;;7.70;56.50;;;;;;5054200;28;20025;-68
2021/04/11 18:21:31;;;;;;;22.40;1.20;;;7.60;56.80;;;;;;5053909;28;20025;-68
2021/04/11 18:24:06;;;;;;;12.27;0.90;;;7.50;56.80;;;;;;5053761;28;20056;-68
2021/04/11 18:26:47;;;;;;;5.50;1.30;;;7.40;57.10;;;;;;5053760;28;20032;-68
2021/04/11 18:29:23;;;;;;;11.68;1.08;;;7.30;57.20;;;;;;5053789;28;20031;-68
2021/04/11 18:32:22;;;;;;;11.82;1.13;;;7.20;57.40;;;;;;5053371;28;20492;-69